Platte, South Dakota
Current Conditions -  °F | °C
As of 3:35 AM on Sunday 23 Nov 2014 (Local Time) from K9V9 Reporting Station
Overcast Overcast  
Wind Chill: 31°   Ceiling: 9000
Heat Index: 38°   Visibility: 10mi
Dew Point: 33°   Wind: 12mph
Humidity: 80%   Direction: 330°NNW
Pressure: 29.48"   Gusts: NA
Location:  43.39°N, 98.84°W
Report Text: K9V9 230935Z AUTO 33010KT 10SM OVC090 04/00 A2948 RMK AO2 T00360004
Loading
Personal Weather Stations






























Interactive Weather Map New forecast layout! Learn more

10-Day Weather Forecast

Advertisements
Track Severe Weather on mobile